Time;durP1;ratioP1;P1;durP2;ratioP2;P2;SDS_P1;SDS_P2;PMS_P1;PMS_P2;Temp;Humidity;BMP_temperature;BMP_pressure;BME280_temperature;BME280_humidity;BME280_pressure;Samples;Min_cycle;Max_cycle;Signal;HPM_P1;HPM_P2
2023/10/20 00:01:16;;;;;;;10.95;4.07;;;8.80;99.90;;;;;;5061921;28;20055;-77
2023/10/20 00:03:41;;;;;;;8.45;4.28;;;8.80;99.90;;;;;;5063821;28;20033;-77
2023/10/20 00:06:08;;;;;;;12.50;4.43;;;8.80;99.90;;;;;;5062625;28;20035;-77
2023/10/20 00:08:33;;;;;;;7.05;3.53;;;8.80;99.90;;;;;;5042572;28;20048;-77
2023/10/20 00:11:03;;;;;;;10.15;3.30;;;8.80;99.90;;;;;;5064062;28;20036;-78
2023/10/20 00:13:29;;;;;;;7.22;3.40;;;8.80;99.90;;;;;;5060041;28;20040;-77
2023/10/20 00:15:55;;;;;;;8.52;2.88;;;8.90;99.90;;;;;;5062282;28;20101;-77
2023/10/20 00:18:20;;;;;;;10.30;3.47;;;8.80;99.90;;;;;;5063857;28;20032;-78
2023/10/20 00:20:46;;;;;;;11.77;3.63;;;8.80;99.90;;;;;;5058795;28;20079;-77
2023/10/20 00:23:14;;;;;;;9.50;4.43;;;8.80;99.90;;;;;;5047150;28;20078;-77
2023/10/20 00:25:40;;;;;;;8.18;3.65;;;8.80;99.90;;;;;;5094781;28;20040;-77
2023/10/20 00:28:05;;;;;;;15.35;4.75;;;8.80;99.90;;;;;;5044206;28;20044;-77
2023/10/20 00:30:31;;;;;;;8.57;3.47;;;8.80;99.90;;;;;;5045029;28;20040;-78
2023/10/20 00:32:57;;;;;;;6.18;3.03;;;8.80;99.90;;;;;;5063855;28;20040;-77
2023/10/20 00:35:22;;;;;;;9.63;4.13;;;8.80;99.90;;;;;;5041541;28;20123;-77
2023/10/20 00:37:48;;;;;;;9.93;4.57;;;8.80;99.90;;;;;;5042097;28;20040;-77
2023/10/20 00:40:14;;;;;;;8.25;4.53;;;8.80;99.90;;;;;;5060928;28;20120;-77
2023/10/20 00:42:39;;;;;;;10.55;3.92;;;8.70;99.90;;;;;;5057709;28;20502;-77
2023/10/20 00:45:08;;;;;;;9.55;4.18;;;8.80;99.90;;;;;;5069671;28;20060;-77
2023/10/20 00:47:35;;;;;;;16.35;5.50;;;8.80;99.90;;;;;;5053096;28;20055;-78
2023/10/20 00:50:02;;;;;;;9.93;4.15;;;8.80;99.90;;;;;;5052745;28;20087;-77
2023/10/20 00:52:29;;;;;;;10.75;3.63;;;8.80;99.90;;;;;;5063940;28;20675;-77
2023/10/20 00:54:55;;;;;;;10.60;4.40;;;8.80;99.90;;;;;;5095437;28;20040;-77
2023/10/20 00:57:21;;;;;;;11.75;3.90;;;8.80;99.90;;;;;;5045826;28;20044;-77
2023/10/20 00:59:47;;;;;;;13.30;4.05;;;8.80;99.90;;;;;;5047717;28;20041;-77
2023/10/20 01:02:13;;;;;;;11.07;4.03;;;8.80;99.90;;;;;;5063361;28;20290;-77
2023/10/20 01:04:38;;;;;;;12.55;4.50;;;8.80;99.90;;;;;;5049015;28;20125;-77
2023/10/20 01:07:04;;;;;;;10.50;4.00;;;8.70;99.90;;;;;;5085639;28;20044;-77
2023/10/20 01:09:30;;;;;;;12.25;4.78;;;8.80;99.90;;;;;;5040840;28;20085;-77
2023/10/20 01:11:55;;;;;;;10.07;4.40;;;8.70;99.90;;;;;;5061359;28;20459;-77
2023/10/20 01:14:21;;;;;;;10.52;4.30;;;8.70;99.90;;;;;;5045104;28;20045;-77
2023/10/20 01:16:47;;;;;;;8.18;3.05;;;8.70;99.90;;;;;;5067623;28;20040;-78
2023/10/20 01:19:14;;;;;;;12.05;4.65;;;8.70;99.90;;;;;;5046165;28;20067;-78
2023/10/20 01:21:40;;;;;;;11.68;4.90;;;8.70;99.90;;;;;;5062179;28;20053;-78
2023/10/20 01:24:06;;;;;;;12.70;4.30;;;8.70;99.90;;;;;;5058568;28;20037;-78
2023/10/20 01:26:31;;;;;;;7.65;3.65;;;8.70;99.90;;;;;;5062086;28;20029;-77
2023/10/20 01:28:58;;;;;;;9.93;4.15;;;8.70;99.90;;;;;;5062982;28;20037;-77
2023/10/20 01:31:24;;;;;;;15.55;4.55;;;8.70;99.90;;;;;;5045007;28;20040;-77
2023/10/20 01:33:49;;;;;;;14.73;4.68;;;8.70;99.90;;;;;;5060153;28;20052;-77
2023/10/20 01:36:15;;;;;;;11.05;4.82;;;8.70;99.90;;;;;;5061631;28;20466;-77
2023/10/20 01:38:40;;;;;;;12.43;4.10;;;8.70;99.90;;;;;;5060617;28;20526;-77
2023/10/20 01:41:06;;;;;;;9.98;4.88;;;8.70;99.90;;;;;;5061592;28;20086;-77
2023/10/20 01:43:33;;;;;;;12.93;4.55;;;8.70;99.90;;;;;;5054883;28;20101;-77
2023/10/20 01:46:02;;;;;;;12.45;4.75;;;8.70;99.90;;;;;;5069866;28;20367;-77
2023/10/20 01:48:30;;;;;;;13.15;4.22;;;8.60;99.90;;;;;;5051387;28;20037;-77
2023/10/20 01:50:56;;;;;;;13.43;3.92;;;8.70;99.90;;;;;;5066669;28;20040;-78
2023/10/20 01:53:22;;;;;;;10.82;4.63;;;8.70;99.90;;;;;;5044272;28;20061;-77
2023/10/20 01:55:49;;;;;;;11.18;4.93;;;8.60;99.90;;;;;;5058619;28;20076;-77
2023/10/20 01:58:17;;;;;;;11.05;4.07;;;8.60;99.90;;;;;;5060371;28;20044;-78
2023/10/20 02:00:44;;;;;;;10.55;4.00;;;8.60;99.90;;;;;;5062726;28;20041;-77
2023/10/20 02:03:10;;;;;;;12.73;4.07;;;8.60;99.90;;;;;;5042814;28;20036;-77
2023/10/20 02:05:36;;;;;;;12.52;4.45;;;8.60;99.90;;;;;;5045423;28;20032;-77
2023/10/20 02:08:02;;;;;;;9.10;3.80;;;8.60;99.90;;;;;;5044606;28;20036;-77
2023/10/20 02:10:27;;;;;;;9.48;4.82;;;8.60;99.90;;;;;;5061272;28;20040;-77
2023/10/20 02:12:53;;;;;;;13.05;3.38;;;8.60;99.90;;;;;;5045997;28;20036;-77
2023/10/20 02:15:19;;;;;;;10.25;4.45;;;8.60;99.90;;;;;;5058091;28;20037;-77
2023/10/20 02:17:45;;;;;;;10.45;4.90;;;8.60;99.90;;;;;;5060256;28;20054;-77
2023/10/20 02:20:11;;;;;;;6.70;3.78;;;8.60;99.90;;;;;;5059231;28;20028;-77
2023/10/20 02:22:37;;;;;;;12.57;5.00;;;8.60;99.90;;;;;;5094677;28;20245;-77
2023/10/20 02:25:03;;;;;;;13.68;4.75;;;8.60;99.90;;;;;;5038053;28;20115;-77
2023/10/20 02:27:29;;;;;;;10.50;3.85;;;8.60;99.90;;;;;;5045567;28;20038;-77
2023/10/20 02:29:56;;;;;;;12.45;4.68;;;8.60;99.90;;;;;;5044781;28;20123;-76
2023/10/20 02:32:21;;;;;;;9.25;3.60;;;8.60;99.90;;;;;;5092937;28;20420;-78
2023/10/20 02:34:47;;;;;;;7.68;3.85;;;8.60;99.90;;;;;;5057342;28;20038;-76
2023/10/20 02:37:14;;;;;;;10.43;4.00;;;8.60;99.90;;;;;;5056809;28;20044;-78
2023/10/20 02:39:40;;;;;;;10.63;4.93;;;8.60;99.90;;;;;;5059595;28;20040;-78
2023/10/20 02:42:06;;;;;;;8.57;4.20;;;8.60;99.90;;;;;;5043609;28;20556;-78
2023/10/20 02:44:32;;;;;;;14.80;4.00;;;8.60;99.90;;;;;;5044884;28;20115;-78
2023/10/20 02:46:57;;;;;;;10.45;4.35;;;8.60;99.90;;;;;;5041909;28;20119;-78
2023/10/20 02:49:24;;;;;;;14.35;4.57;;;8.60;99.90;;;;;;5062238;28;20127;-78
2023/10/20 02:51:49;;;;;;;9.43;4.30;;;8.60;99.90;;;;;;5041956;28;20049;-76
2023/10/20 02:54:15;;;;;;;9.60;4.00;;;8.60;99.90;;;;;;5047550;28;20032;-78
2023/10/20 02:56:41;;;;;;;11.10;4.10;;;8.60;99.90;;;;;;5064838;28;20466;-77
2023/10/20 02:59:06;;;;;;;10.60;4.15;;;8.60;99.90;;;;;;5064455;28;20146;-77
2023/10/20 03:01:32;;;;;;;7.90;3.63;;;8.60;99.90;;;;;;5063531;28;20044;-77
2023/10/20 03:03:58;;;;;;;7.97;3.40;;;8.60;99.90;;;;;;5063880;28;20036;-77
2023/10/20 03:06:24;;;;;;;10.18;4.15;;;8.50;99.90;;;;;;5063088;28;20028;-77
2023/10/20 03:08:50;;;;;;;11.00;4.13;;;8.50;99.90;;;;;;5048929;28;20036;-77
2023/10/20 03:11:16;;;;;;;10.07;4.75;;;8.50;99.90;;;;;;5065443;28;20115;-77
2023/10/20 03:13:41;;;;;;;11.20;4.40;;;8.50;99.90;;;;;;5064084;28;20439;-77
2023/10/20 03:16:07;;;;;;;10.75;4.28;;;8.50;99.90;;;;;;5059731;28;20072;-78
2023/10/20 03:18:32;;;;;;;8.10;3.15;;;8.50;99.90;;;;;;5063209;28;20051;-77
2023/10/20 03:21:00;;;;;;;12.75;4.50;;;8.50;99.90;;;;;;5045440;28;20421;-77
2023/10/20 03:23:26;;;;;;;7.97;3.78;;;8.50;99.90;;;;;;5049211;28;20958;-77
2023/10/20 03:25:53;;;;;;;8.32;3.65;;;8.50;99.90;;;;;;5048202;28;20036;-77
2023/10/20 03:28:18;;;;;;;7.53;3.60;;;8.50;99.90;;;;;;5049538;28;20032;-77
2023/10/20 03:30:45;;;;;;;7.93;3.20;;;8.50;99.90;;;;;;5064179;28;20056;-77
2023/10/20 03:33:13;;;;;;;9.68;3.53;;;8.50;99.90;;;;;;5095772;27;20044;-77
2023/10/20 03:35:42;;;;;;;8.68;3.90;;;8.50;99.90;;;;;;5095522;28;20440;-77
2023/10/20 03:38:09;;;;;;;10.18;4.03;;;8.50;99.90;;;;;;5046701;28;20044;-77
2023/10/20 03:40:40;;;;;;;6.13;3.05;;;8.40;99.90;;;;;;5065553;28;20571;-77
2023/10/20 03:43:08;;;;;;;10.75;3.25;;;8.50;99.90;;;;;;5079667;28;20052;-77
2023/10/20 03:45:41;;;;;;;8.55;3.75;;;8.50;99.90;;;;;;5070785;28;20486;-77
2023/10/20 03:48:10;;;;;;;8.93;3.15;;;8.50;99.90;;;;;;5069842;28;20044;-77
2023/10/20 03:50:38;;;;;;;13.18;3.88;;;8.50;99.90;;;;;;5054687;28;20189;-77
2023/10/20 03:53:05;;;;;;;9.20;3.85;;;8.50;99.90;;;;;;5044394;28;20128;-77
2023/10/20 03:55:30;;;;;;;8.32;2.65;;;8.40;99.90;;;;;;5092783;28;20079;-77
2023/10/20 03:57:56;;;;;;;5.20;2.60;;;8.50;99.90;;;;;;5047338;28;20064;-77
2023/10/20 04:00:27;;;;;;;5.72;2.85;;;8.40;99.90;;;;;;5049227;28;20097;-77
2023/10/20 04:02:54;;;;;;;7.88;3.17;;;8.50;99.90;;;;;;5062595;28;20379;-77
2023/10/20 04:05:20;;;;;;;6.80;3.15;;;8.50;99.90;;;;;;5061513;28;20041;-77
2023/10/20 04:07:46;;;;;;;10.63;3.33;;;8.40;99.90;;;;;;5061858;28;20658;-77
2023/10/20 04:10:12;;;;;;;8.50;3.20;;;8.40;99.90;;;;;;5055728;28;20132;-77
2023/10/20 04:12:39;;;;;;;7.10;3.28;;;8.40;99.90;;;;;;5047461;28;20482;-77
2023/10/20 04:15:08;;;;;;;7.45;3.30;;;8.40;99.90;;;;;;5058153;28;20124;-77
2023/10/20 04:17:38;;;;;;;4.57;2.53;;;8.40;99.90;;;;;;5060942;28;20040;-77
2023/10/20 04:20:06;;;;;;;7.55;3.10;;;8.50;99.90;;;;;;5097149;27;20040;-77
2023/10/20 04:22:32;;;;;;;6.47;3.20;;;8.40;99.90;;;;;;5061953;28;20569;-77
2023/10/20 04:24:58;;;;;;;7.28;3.10;;;8.40;99.90;;;;;;5062274;28;20037;-77
2023/10/20 04:27:47;;;;;;;6.18;2.80;;;8.40;99.90;;;;;;5063218;28;20028;-77
2023/10/20 04:56:19;;;;;;;7.28;3.00;;;8.30;99.90;;;;;;5089828;28;20187;-77
2023/10/20 05:05:28;;;;;;;7.25;3.53;;;8.30;99.90;;;;;;5061703;28;20053;-77
2023/10/20 05:08:04;;;;;;;8.65;3.25;;;8.30;99.90;;;;;;5094014;28;20132;-77
2023/10/20 05:10:30;;;;;;;8.60;3.05;;;8.30;99.90;;;;;;5096135;28;20103;-77
2023/10/20 05:12:56;;;;;;;7.50;2.92;;;8.30;99.90;;;;;;5060854;28;20396;-77
2023/10/20 05:15:21;;;;;;;9.30;3.47;;;8.30;99.90;;;;;;5040922;28;20043;-77
2023/10/20 05:17:47;;;;;;;13.18;3.58;;;8.30;99.90;;;;;;5060313;28;20657;-77
2023/10/20 05:20:20;;;;;;;5.75;2.80;;;8.30;99.90;;;;;;5062457;28;20463;-77
2023/10/20 05:22:46;;;;;;;7.15;3.42;;;8.30;99.90;;;;;;5055031;28;20048;-77
2023/10/20 05:25:13;;;;;;;4.38;3.03;;;8.20;99.90;;;;;;5062891;28;20226;-77
2023/10/20 05:27:39;;;;;;;6.63;3.55;;;8.20;99.90;;;;;;5060707;28;20059;-77
2023/10/20 05:30:05;;;;;;;5.15;2.50;;;8.20;99.90;;;;;;5062711;28;20127;-78
2023/10/20 05:32:32;;;;;;;6.78;2.70;;;8.20;99.90;;;;;;5047012;28;20040;-77
2023/10/20 05:34:59;;;;;;;9.13;3.63;;;8.20;99.90;;;;;;5104573;27;20051;-77
2023/10/20 05:37:25;;;;;;;7.47;2.92;;;8.20;99.90;;;;;;5062403;28;20080;-77
2023/10/20 05:39:50;;;;;;;7.82;3.85;;;8.20;99.90;;;;;;5057057;28;20040;-78
2023/10/20 05:42:18;;;;;;;5.47;3.30;;;8.20;99.90;;;;;;5060219;28;20478;-77
2023/10/20 05:45:03;;;;;;;10.35;4.80;;;8.20;99.90;;;;;;5092160;28;20041;-77
2023/10/20 05:47:30;;;;;;;5.35;3.17;;;8.20;99.90;;;;;;5047879;28;20239;-77
2023/10/20 05:49:57;;;;;;;6.75;3.25;;;8.20;99.90;;;;;;5067180;28;20067;-77
2023/10/20 05:52:22;;;;;;;7.53;3.15;;;8.20;99.90;;;;;;5045629;28;20041;-77
2023/10/20 05:54:49;;;;;;;5.50;3.10;;;8.20;99.90;;;;;;5044163;28;20444;-77
2023/10/20 05:57:15;;;;;;;6.40;3.78;;;8.20;99.90;;;;;;5059157;28;20229;-77
2023/10/20 05:59:41;;;;;;;9.52;2.67;;;8.20;99.90;;;;;;5059392;28;20063;-77
2023/10/20 06:02:07;;;;;;;6.55;3.28;;;8.20;99.90;;;;;;5060279;28;20495;-77
2023/10/20 06:04:34;;;;;;;6.90;2.83;;;8.20;99.90;;;;;;5040740;28;20033;-77
2023/10/20 06:07:01;;;;;;;7.72;2.63;;;8.20;99.90;;;;;;5061739;28;20040;-77
2023/10/20 06:09:27;;;;;;;5.30;2.42;;;8.20;99.90;;;;;;5068378;28;20130;-77
2023/10/20 06:11:56;;;;;;;6.60;2.67;;;8.20;99.90;;;;;;5042171;28;20040;-77
2023/10/20 06:14:23;;;;;;;7.18;2.97;;;8.20;99.90;;;;;;5064565;28;20048;-77
2023/10/20 06:16:49;;;;;;;7.22;2.47;;;8.20;99.90;;;;;;5054187;28;20043;-78
2023/10/20 06:19:15;;;;;;;4.07;2.00;;;8.20;99.90;;;;;;5056572;28;20040;-79
2023/10/20 06:21:42;;;;;;;6.28;2.83;;;8.20;99.90;;;;;;5051538;28;20059;-77
2023/10/20 06:24:12;;;;;;;4.07;2.30;;;8.20;99.90;;;;;;5046898;28;20072;-77
2023/10/20 06:26:38;;;;;;;5.85;2.28;;;8.20;99.90;;;;;;5043886;28;20048;-77
2023/10/20 06:29:21;;;;;;;3.60;2.17;;;8.20;99.90;;;;;;5052626;28;20067;-77
2023/10/20 06:31:55;;;;;;;4.47;2.63;;;8.20;99.90;;;;;;5041661;28;20039;-77
2023/10/20 06:34:24;;;;;;;7.15;2.80;;;8.20;99.90;;;;;;5060411;28;20072;-77
2023/10/20 06:37:28;;;;;;;4.55;2.47;;;8.20;99.90;;;;;;5038367;28;20041;-76
2023/10/20 06:39:45;;;;;;;4.90;2.65;;;8.20;99.90;;;;;;5058693;28;20040;-76
2023/10/20 06:42:10;;;;;;;5.05;1.73;;;8.20;99.90;;;;;;5060587;28;20039;-76
2023/10/20 06:44:36;;;;;;;5.28;2.53;;;8.20;99.90;;;;;;5060670;28;20047;-76
2023/10/20 06:47:01;;;;;;;4.68;2.22;;;8.20;99.90;;;;;;5062673;28;20082;-76
2023/10/20 06:49:28;;;;;;;2.65;1.67;;;8.20;99.90;;;;;;5056719;28;20037;-76
2023/10/20 06:51:54;;;;;;;5.43;1.73;;;8.20;99.90;;;;;;5043302;28;20037;-76
2023/10/20 06:54:19;;;;;;;6.30;1.95;;;8.20;99.90;;;;;;5060510;28;20039;-76
2023/10/20 06:56:45;;;;;;;4.63;2.38;;;8.20;99.90;;;;;;5076222;28;20032;-77
2023/10/20 06:59:15;;;;;;;3.63;1.88;;;8.20;99.90;;;;;;5060193;28;20551;-76
2023/10/20 07:01:42;;;;;;;7.50;2.28;;;8.20;99.90;;;;;;5038196;28;20055;-76
2023/10/20 07:04:10;;;;;;;2.88;1.45;;;8.20;99.90;;;;;;5064151;28;20037;-76
2023/10/20 07:06:37;;;;;;;2.88;1.40;;;8.20;99.90;;;;;;5042239;28;20036;-77
2023/10/20 07:09:13;;;;;;;3.00;1.38;;;8.20;99.90;;;;;;5056528;28;20028;-77
2023/10/20 07:11:39;;;;;;;3.65;1.52;;;8.20;99.90;;;;;;5092311;28;20106;-75
2023/10/20 07:14:07;;;;;;;5.45;2.10;;;8.20;99.90;;;;;;5060554;28;20055;-76
2023/10/20 07:16:33;;;;;;;3.67;2.35;;;8.20;99.90;;;;;;5089606;28;20044;-78
2023/10/20 07:19:00;;;;;;;2.75;1.50;;;8.20;99.90;;;;;;5057981;28;20044;-75
2023/10/20 07:21:26;;;;;;;5.80;1.90;;;8.20;99.90;;;;;;5060582;28;20032;-76
2023/10/20 07:23:52;;;;;;;2.20;1.42;;;8.20;99.90;;;;;;5080531;28;20248;-76
2023/10/20 07:26:18;;;;;;;4.57;1.75;;;8.20;99.90;;;;;;5060594;28;20046;-76
2023/10/20 07:28:44;;;;;;;2.00;1.25;;;8.20;99.90;;;;;;5088090;28;20085;-76
2023/10/20 07:31:12;;;;;;;6.72;1.92;;;8.20;99.90;;;;;;5070892;28;20135;-76
2023/10/20 07:33:37;;;;;;;4.20;1.67;;;8.20;99.90;;;;;;5087704;28;20090;-76
2023/10/20 07:36:05;;;;;;;3.20;1.60;;;8.20;99.90;;;;;;5069303;28;20450;-76
2023/10/20 07:38:30;;;;;;;5.43;1.58;;;8.20;99.90;;;;;;5065629;28;20132;-76
2023/10/20 07:40:56;;;;;;;3.78;1.40;;;8.20;99.90;;;;;;5053618;28;20119;-76
2023/10/20 07:43:21;;;;;;;5.82;1.55;;;8.20;99.90;;;;;;5071013;28;20033;-76
2023/10/20 07:45:49;;;;;;;2.78;1.50;;;8.20;99.90;;;;;;5071020;28;20039;-76
2023/10/20 07:48:15;;;;;;;3.15;1.40;;;8.20;99.90;;;;;;5076830;28;20568;-76
2023/10/20 07:50:40;;;;;;;2.28;1.17;;;8.20;99.90;;;;;;5089930;28;20036;-76
2023/10/20 07:53:07;;;;;;;1.98;0.80;;;8.20;99.90;;;;;;5071525;28;20396;-76
2023/10/20 07:55:33;;;;;;;4.60;0.88;;;8.20;99.90;;;;;;5064997;28;20035;-76
2023/10/20 07:57:58;;;;;;;1.38;0.80;;;8.20;99.90;;;;;;5074222;28;20413;-76
2023/10/20 08:00:24;;;;;;;3.25;1.40;;;8.20;99.90;;;;;;5074218;28;20048;-76
2023/10/20 08:02:50;;;;;;;2.05;1.15;;;8.10;99.90;;;;;;5061316;28;20041;-76
2023/10/20 08:05:16;;;;;;;1.30;0.88;;;8.20;99.90;;;;;;5051561;28;20332;-76
2023/10/20 08:07:42;;;;;;;3.13;0.98;;;8.20;99.90;;;;;;5068363;28;20040;-76
2023/10/20 08:10:08;;;;;;;1.33;0.90;;;8.10;99.90;;;;;;5061681;28;20032;-76
2023/10/20 08:12:34;;;;;;;1.60;0.80;;;8.20;99.90;;;;;;5072736;28;20044;-76
2023/10/20 08:15:00;;;;;;;2.25;1.00;;;8.20;99.90;;;;;;5055902;28;20048;-77
2023/10/20 08:17:25;;;;;;;1.65;0.63;;;8.20;99.90;;;;;;5093922;28;20044;-77
2023/10/20 08:19:51;;;;;;;1.60;0.88;;;8.10;99.90;;;;;;5059164;28;20479;-78
2023/10/20 08:22:16;;;;;;;1.33;0.63;;;8.10;99.90;;;;;;5042889;28;20066;-78
2023/10/20 08:24:42;;;;;;;1.92;0.60;;;8.10;99.90;;;;;;5059813;28;20509;-78
2023/10/20 08:27:07;;;;;;;3.10;1.35;;;8.10;99.90;;;;;;5060046;28;20436;-79
2023/10/20 08:29:33;;;;;;;0.98;0.63;;;8.10;99.90;;;;;;5047636;28;20028;-78
2023/10/20 08:31:59;;;;;;;2.00;0.98;;;8.10;99.90;;;;;;5050510;28;20487;-78
2023/10/20 08:34:24;;;;;;;1.40;1.00;;;8.20;99.90;;;;;;5094312;28;20032;-78
2023/10/20 08:36:50;;;;;;;1.80;1.00;;;8.10;99.90;;;;;;5060130;28;20407;-78
2023/10/20 08:39:24;;;;;;;1.90;0.82;;;8.10;99.90;;;;;;5045929;28;20068;-78
2023/10/20 08:41:50;;;;;;;0.65;0.40;;;8.10;99.90;;;;;;5044155;28;20066;-77
2023/10/20 08:44:17;;;;;;;1.95;0.90;;;8.00;99.90;;;;;;5062180;28;20033;-77
2023/10/20 08:46:44;;;;;;;1.02;0.65;;;8.00;99.90;;;;;;5055172;28;20501;-77
2023/10/20 08:49:11;;;;;;;1.13;0.73;;;8.00;99.90;;;;;;5057371;28;20038;-77
2023/10/20 08:51:38;;;;;;;1.15;0.55;;;8.00;99.90;;;;;;5058171;28;20127;-78
2023/10/20 08:54:07;;;;;;;1.20;0.50;;;8.00;99.90;;;;;;5058645;28;20090;-77
2023/10/20 08:56:32;;;;;;;1.15;0.55;;;8.00;99.90;;;;;;5059591;28;20036;-78
2023/10/20 08:58:58;;;;;;;0.82;0.38;;;8.00;99.90;;;;;;5043347;28;20067;-78
2023/10/20 09:01:24;;;;;;;1.98;0.40;;;8.00;99.90;;;;;;5040006;28;20086;-75
2023/10/20 09:03:52;;;;;;;1.15;0.57;;;8.00;99.90;;;;;;5043380;28;20098;-78
2023/10/20 09:06:17;;;;;;;2.00;0.63;;;8.00;99.90;;;;;;5044734;28;20037;-78
2023/10/20 09:08:47;;;;;;;0.52;0.32;;;8.00;99.90;;;;;;5052842;28;20036;-78
2023/10/20 09:11:13;;;;;;;1.83;0.80;;;7.90;99.90;;;;;;5086874;28;20411;-78
2023/10/20 09:13:40;;;;;;;0.50;0.30;;;7.90;99.90;;;;;;5059465;28;20040;-78
2023/10/20 09:16:11;;;;;;;1.38;0.60;;;7.90;99.90;;;;;;5062163;28;20547;-78
2023/10/20 09:18:45;;;;;;;2.55;0.50;;;7.90;99.90;;;;;;5062106;28;20394;-77
2023/10/20 09:21:19;;;;;;;1.38;0.57;;;7.90;99.90;;;;;;5061416;28;20047;-77
2023/10/20 09:23:56;;;;;;;0.60;0.43;;;7.90;99.90;;;;;;5055628;28;20114;-77
2023/10/20 09:26:23;;;;;;;0.85;0.40;;;7.90;99.90;;;;;;5094124;27;20033;-78
2023/10/20 09:28:50;;;;;;;0.77;0.43;;;7.90;99.90;;;;;;5042052;28;20457;-77
2023/10/20 09:31:19;;;;;;;1.00;0.70;;;7.90;99.90;;;;;;5056762;28;20040;-77
2023/10/20 09:33:45;;;;;;;1.75;0.60;;;7.90;99.90;;;;;;5051938;28;20055;-77
2023/10/20 09:36:12;;;;;;;0.90;0.50;;;7.90;99.90;;;;;;5040805;28;20119;-76
2023/10/20 09:38:38;;;;;;;0.60;0.38;;;7.80;99.90;;;;;;5081153;28;20072;-76
2023/10/20 09:41:12;;;;;;;1.98;1.10;;;7.80;99.90;;;;;;5065607;28;20119;-76
2023/10/20 09:43:52;;;;;;;1.73;0.50;;;7.80;99.90;;;;;;5058137;28;20498;-76
2023/10/20 09:46:39;;;;;;;1.10;0.52;;;7.80;99.90;;;;;;5046899;28;20609;-76
2023/10/20 09:49:18;;;;;;;1.02;0.40;;;7.80;99.90;;;;;;5055522;28;20098;-76
2023/10/20 09:51:47;;;;;;;0.70;0.30;;;7.80;99.90;;;;;;5048698;28;20048;-76
2023/10/20 09:54:19;;;;;;;0.38;0.30;;;7.80;99.90;;;;;;5087600;28;20203;-76
2023/10/20 09:56:46;;;;;;;0.98;0.47;;;7.80;99.90;;;;;;5072475;28;20040;-76
2023/10/20 09:59:20;;;;;;;0.43;0.40;;;7.70;99.90;;;;;;5055007;28;20452;-76
2023/10/20 10:01:47;;;;;;;0.73;0.38;;;7.70;99.90;;;;;;5098867;28;20445;-75
2023/10/20 10:04:13;;;;;;;1.05;0.35;;;7.70;99.90;;;;;;5041636;28;20028;-75
2023/10/20 10:06:42;;;;;;;0.30;0.30;;;7.70;99.90;;;;;;5038653;28;20098;-75
2023/10/20 10:09:08;;;;;;;0.10;0.10;;;7.70;99.90;;;;;;5044771;28;20037;-76
2023/10/20 10:11:45;;;;;;;0.73;0.50;;;7.60;99.90;;;;;;5041620;28;20036;-75
2023/10/20 10:14:25;;;;;;;0.98;0.50;;;7.70;99.90;;;;;;5061925;28;20048;-75
2023/10/20 10:16:55;;;;;;;0.57;0.30;;;7.60;99.90;;;;;;5093175;28;20170;-75
2023/10/20 10:19:26;;;;;;;0.20;0.17;;;7.60;99.90;;;;;;5046458;28;20036;-76
2023/10/20 10:21:53;;;;;;;3.20;0.20;;;7.60;99.90;;;;;;5057934;28;20044;-75
2023/10/20 10:24:24;;;;;;;0.20;0.20;;;7.60;99.90;;;;;;5057745;28;20094;-75
2023/10/20 10:26:56;;;;;;;0.52;0.40;;;7.60;99.90;;;;;;5062156;28;20044;-75
2023/10/20 10:29:51;;;;;;;0.15;0.10;;;7.60;99.90;;;;;;5061206;28;20036;-75
2023/10/20 10:32:21;;;;;;;0.35;0.17;;;7.50;99.90;;;;;;5057870;28;20051;-75
2023/10/20 10:34:49;;;;;;;0.20;0.10;;;7.60;99.90;;;;;;5079001;28;20396;-75
2023/10/20 10:37:36;;;;;;;0.35;0.28;;;7.50;99.90;;;;;;5054619;28;20075;-75
2023/10/20 10:40:13;;;;;;;0.77;0.38;;;7.50;99.90;;;;;;5076871;28;20067;-75
2023/10/20 10:42:46;;;;;;;0.22;0.13;;;7.50;99.90;;;;;;5055662;28;20045;-76
2023/10/20 10:45:16;;;;;;;0.40;0.20;;;7.50;99.90;;;;;;5059850;28;20393;-76
2023/10/20 10:47:42;;;;;;;1.08;0.30;;;7.50;99.90;;;;;;5061210;28;20173;-74
2023/10/20 10:50:08;;;;;;;0.65;0.20;;;7.50;99.90;;;;;;5057104;28;20466;-75
2023/10/20 10:52:34;;;;;;;0.35;0.28;;;7.50;99.90;;;;;;5058793;28;20078;-75
2023/10/20 10:54:59;;;;;;;0.40;0.20;;;7.50;99.90;;;;;;5054763;28;20036;-75
2023/10/20 10:57:25;;;;;;;0.20;0.20;;;7.50;99.90;;;;;;5057117;28;20689;-75
2023/10/20 10:59:51;;;;;;;0.15;0.10;;;7.50;99.90;;;;;;5095619;28;20044;-75
2023/10/20 11:02:17;;;;;;;0.63;0.30;;;7.50;99.90;;;;;;5061350;28;20033;-75
2023/10/20 11:04:43;;;;;;;0.10;0.10;;;7.50;99.90;;;;;;5059229;28;20410;-75
2023/10/20 11:07:12;;;;;;;0.75;0.30;;;7.50;99.90;;;;;;5055957;28;20471;-75
2023/10/20 11:09:39;;;;;;;0.30;0.10;;;7.50;99.90;;;;;;5088288;28;20055;-75
2023/10/20 11:12:08;;;;;;;0.20;0.20;;;7.40;99.90;;;;;;5043114;28;20049;-75
2023/10/20 11:14:34;;;;;;;0.40;0.20;;;7.50;99.90;;;;;;5060114;28;20415;-75
2023/10/20 11:17:03;;;;;;;0.40;0.20;;;7.50;99.90;;;;;;5063989;28;20043;-75
2023/10/20 11:19:29;;;;;;;0.10;0.10;;;7.50;99.90;;;;;;5062664;28;20832;-76
2023/10/20 11:21:55;;;;;;;0.10;0.10;;;7.50;99.90;;;;;;5075682;28;21400;-75
2023/10/20 11:24:28;;;;;;;0.75;0.50;;;7.50;99.90;;;;;;5059622;28;20036;-75
2023/10/20 11:27:02;;;;;;;0.60;0.30;;;7.40;99.90;;;;;;5058813;28;20071;-74
2023/10/20 11:29:32;;;;;;;0.65;0.20;;;7.40;99.90;;;;;;5047807;28;20040;-74
2023/10/20 11:32:05;;;;;;;0.30;0.17;;;7.40;99.90;;;;;;5062072;28;20406;-73
2023/10/20 11:34:33;;;;;;;0.73;0.50;;;7.40;99.90;;;;;;5064120;28;20049;-74
2023/10/20 11:37:00;;;;;;;0.47;0.20;;;7.40;99.90;;;;;;5064150;28;20052;-73
2023/10/20 11:39:27;;;;;;;0.25;0.20;;;7.40;99.90;;;;;;5058963;28;20052;-73
2023/10/20 11:41:53;;;;;;;0.85;0.20;;;7.40;99.90;;;;;;5064604;28;20413;-73
2023/10/20 11:44:20;;;;;;;0.00;0.00;;;7.40;99.90;;;;;;5060830;28;20321;-73
2023/10/20 11:46:46;;;;;;;0.08;0.05;;;7.40;99.90;;;;;;5047382;28;20046;-73
2023/10/20 11:49:12;;;;;;;0.30;0.10;;;7.40;99.90;;;;;;5062926;28;20076;-74
2023/10/20 11:51:39;;;;;;;1.27;0.20;;;7.40;99.90;;;;;;5058153;28;20405;-74
2023/10/20 11:54:06;;;;;;;0.38;0.10;;;7.40;99.90;;;;;;5056792;28;20047;-73
2023/10/20 11:56:32;;;;;;;0.10;0.10;;;7.40;99.90;;;;;;5055050;28;20040;-74
2023/10/20 11:58:58;;;;;;;0.20;0.10;;;7.30;99.90;;;;;;5060370;28;20041;-74
2023/10/20 12:01:24;;;;;;;0.10;0.10;;;7.30;99.90;;;;;;5044829;28;20359;-73
2023/10/20 12:03:50;;;;;;;0.13;0.13;;;7.30;99.90;;;;;;5060335;28;20033;-73
2023/10/20 12:06:15;;;;;;;0.10;0.10;;;7.30;99.90;;;;;;5059236;28;20044;-73
2023/10/20 12:08:41;;;;;;;1.52;0.15;;;7.40;99.90;;;;;;5060237;28;20037;-73
2023/10/20 12:11:08;;;;;;;0.10;0.10;;;7.30;99.90;;;;;;5047877;28;20120;-73
2023/10/20 12:13:36;;;;;;;0.13;0.10;;;7.40;99.90;;;;;;5065137;28;20043;-73
2023/10/20 12:16:05;;;;;;;0.10;0.10;;;7.30;99.90;;;;;;5061522;28;20052;-73
2023/10/20 12:18:30;;;;;;;1.42;0.20;;;7.30;99.90;;;;;;5094516;28;20075;-73
2023/10/20 12:20:56;;;;;;;0.20;0.10;;;7.30;99.90;;;;;;5059671;28;20068;-72
2023/10/20 12:23:21;;;;;;;0.45;0.13;;;7.30;99.90;;;;;;5046557;28;20032;-73
2023/10/20 12:25:47;;;;;;;0.47;0.20;;;7.30;99.90;;;;;;5061007;28;20041;-72
2023/10/20 12:28:13;;;;;;;0.65;0.28;;;7.30;99.90;;;;;;5062239;28;20146;-72
2023/10/20 12:30:38;;;;;;;0.20;0.10;;;7.30;99.90;;;;;;5047342;28;20493;-72
2023/10/20 12:33:05;;;;;;;0.30;0.20;;;7.30;99.90;;;;;;5059211;28;20080;-73
2023/10/20 12:35:31;;;;;;;0.10;0.10;;;7.30;99.90;;;;;;5053472;28;20053;-73
2023/10/20 12:37:57;;;;;;;0.10;0.10;;;7.30;99.90;;;;;;5057525;28;20448;-73
2023/10/20 12:40:22;;;;;;;0.17;0.10;;;7.30;99.90;;;;;;5045865;28;20041;-72
2023/10/20 12:42:49;;;;;;;0.40;0.20;;;7.30;99.90;;;;;;5057018;28;20059;-72
2023/10/20 12:45:16;;;;;;;0.10;0.10;;;7.30;99.90;;;;;;5058462;28;22141;-73
2023/10/20 12:47:42;;;;;;;0.05;0.05;;;7.30;99.90;;;;;;5044052;28;20509;-73
2023/10/20 12:50:08;;;;;;;0.35;0.20;;;7.30;99.90;;;;;;5098296;28;20036;-73
2023/10/20 12:52:34;;;;;;;0.57;0.10;;;7.30;99.90;;;;;;5059302;28;20106;-73
2023/10/20 12:55:00;;;;;;;0.20;0.20;;;7.30;99.90;;;;;;5045215;28;20043;-73
2023/10/20 12:57:26;;;;;;;0.05;0.05;;;7.30;99.90;;;;;;5044198;28;20045;-72
2023/10/20 12:59:51;;;;;;;0.10;0.10;;;7.30;99.90;;;;;;5059168;28;20032;-73
2023/10/20 13:02:17;;;;;;;0.20;0.20;;;7.30;99.90;;;;;;5038395;28;20033;-72
2023/10/20 13:04:43;;;;;;;0.95;0.25;;;7.30;99.90;;;;;;5054149;28;20029;-72
2023/10/20 13:07:09;;;;;;;0.65;0.30;;;7.20;99.90;;;;;;5059802;28;20086;-72
2023/10/20 13:09:34;;;;;;;0.30;0.20;;;7.30;99.90;;;;;;5066281;28;20032;-72
2023/10/20 13:12:00;;;;;;;0.30;0.25;;;7.20;99.90;;;;;;5049245;28;20050;-72
2023/10/20 13:14:26;;;;;;;0.85;0.30;;;7.20;99.90;;;;;;5044843;28;20040;-72
2023/10/20 13:16:52;;;;;;;0.75;0.28;;;7.20;99.90;;;;;;5052368;28;20040;-73
2023/10/20 13:19:18;;;;;;;0.57;0.10;;;7.20;99.90;;;;;;5055803;28;20043;-73
2023/10/20 13:21:43;;;;;;;0.17;0.17;;;7.20;99.90;;;;;;5059358;28;20135;-73
2023/10/20 13:24:09;;;;;;;0.90;0.35;;;7.20;99.90;;;;;;5045598;28;20031;-73
2023/10/20 13:26:35;;;;;;;0.30;0.15;;;7.20;99.90;;;;;;5057260;28;20117;-73
2023/10/20 13:29:00;;;;;;;0.10;0.10;;;7.20;99.90;;;;;;5074556;28;20032;-73